Terminal Aerodrome Forecast
Issued by NWS

Home | Current Version | Previous Version | Text Only | Print | Product List | Glossary On
Versions: 1 2 3 4 5 6 7 8 9 10 11 12 13 14 15 16 17 18 19 20 21
000
FTUS41 KALY 211700
TAFPSF
TAF
KPSF 211720Z 2118/2218 VRB03KT P6SM VCSH BKN020 OVC035
      TEMPO 2118/2122 3SM -SHRA BR BKN009 OVC015
     FM212200 VRB03KT 4SM -SHRA BR SCT008 OVC015
      TEMPO 2122/2202 2SM -RA BR OVC009
     FM220400 00000KT 2SM -SHRA BR OVC008
     FM221200 VRB03KT P6SM VCSH SCT008 OVC015=

USA.gov is the U.S. government's official web portal to all federal, state and local government web resources and services.